Murska Sobota, Slovenia

5:15 PM CEST on September 05, 2015 (GMT +0200)
Zizki | | Change Station
CLOSE
Current Station
Personal Weather Station
Location: Žižki,
Elevation: 554 ft
Nearby Weather Stations

Elev 554 ft 46.57 °N, 16.31 °E | Updated 22 seconds ago

Mostly Cloudy
Mostly Cloudy
59.7 °F
Feels Like 59.7 °F
N
0.0
Wind Variable Wind from NE
Gusts 0.0 mph

Today
High -- | Low -- °F
--% Chance of Precip.
Yesterday
High -- | Low -- °F
Precip. -- in
6:19 AM 7:27 PM
Waning Gibbous, 48% visible
Pressure 29.92 in
Visibility 6.2 miles
Clouds Few 1000 ft
Mostly Cloudy 5500 ft
Dew Point 58 °F
Humidity 93%
Rainfall 0.61 in
Snow Depth Not available.
UV 0.0 out of 12
Pollen Not available.
Air Quality Not available.
Flu Activity Not available.
METAR LJMB 051500Z 36008KT 330V030 9999 FEW010 BKN055 15/11 Q1013
Pressure 29.92 in
Visibility 6.2 miles
Clouds Few 1000 ft
Mostly Cloudy 5500 ft
Dew Point 58 °F
Humidity 93%
Rainfall 0.61 in
Snow Depth Not available.
UV 0.0 out of 12
Pollen Not available.
Air Quality Not available.
Flu Activity Not available.
METAR LJMB 051500Z 36008KT 330V030 9999 FEW010 BKN055 15/11 Q1013

10-Day Weather Forecast

×

Almanac

Astronomy

Sep. 05, 2015 Rise Set
Actual Time
Civil Twilight
Nautical Twilight
Astronomical Twilight
Moon
Length of Visible Light
Length of Day
Tomorrow will be .
, % of the Moon is Illuminated

Today's Extremes

Country Highs Country Lows

Community

WunderPhotos

Upload Photos

1,852,480 photos uploaded!

WunderBlogs® & News

Nearby

Air Quality

  Air Quality AQ Index Pollutant
Not available.

Snow Depth

Station Depth Elevation

Earthquake Activity

City Distance Mag. Time & Date
Minimum magnitude displayed is 2.5.

Coastal Water Temperatures

Place Temperature

Stations

Nearby Weather Stations

Station Location Temp. Windchill Dew Point Humidity Wind Precip. Elev Updated Type